La Dulce, Argentina
Current Conditions -  °F | °C
As of 10:00 PM on Saturday 25 Oct 2014 (Local Time) from SAZM Reporting Station
Thunderstorm Thunderstorm  
Wind Chill: 18°   Ceiling: Unl
Heat Index: 18°   Visibility: 4mi
Dew Point: 17°   Wind: 6mph
Humidity: 94%   Direction: 50°NE
Pressure: 29.85"   Gusts: NA
Location:  38.28°S, 59.2°W
Report Text: SAZM 260100Z 05005KT 7000 TS FEW023FEW050CB 18/17 Q1011
Loading
Personal Weather Stations






























Interactive Weather Map
Tropical Storm Tracking
New forecast layout! Learn more

10-Day Weather Forecast

Advertisements
Track Severe Weather on mobile